sensor_id;sensor_type;location;lat;lon;timestamp;P1;durP1;ratioP1;P2;durP2;ratioP2
10315;SDS011;5203;48.976;8.306;2023-08-30T00:01:34;241.83;;;234.67;;
10315;SDS011;5203;48.976;8.306;2023-08-30T00:04:00;254.57;;;246.97;;
10315;SDS011;5203;48.976;8.306;2023-08-30T00:06:25;261.20;;;253.60;;
10315;SDS011;5203;48.976;8.306;2023-08-30T00:08:51;244.43;;;237.27;;
10315;SDS011;5203;48.976;8.306;2023-08-30T00:11:17;284.70;;;276.33;;
10315;SDS011;5203;48.976;8.306;2023-08-30T00:13:42;300.80;;;291.77;;
10315;SDS011;5203;48.976;8.306;2023-08-30T00:16:08;294.90;;;286.30;;
10315;SDS011;5203;48.976;8.306;2023-08-30T00:18:34;334.57;;;324.67;;
10315;SDS011;5203;48.976;8.306;2023-08-30T00:20:59;309.73;;;300.30;;
10315;SDS011;5203;48.976;8.306;2023-08-30T00:23:25;298.77;;;290.00;;
10315;SDS011;5203;48.976;8.306;2023-08-30T00:25:51;337.70;;;327.73;;
10315;SDS011;5203;48.976;8.306;2023-08-30T00:28:16;310.30;;;301.17;;
10315;SDS011;5203;48.976;8.306;2023-08-30T00:30:42;316.90;;;307.47;;
10315;SDS011;5203;48.976;8.306;2023-08-30T00:33:08;313.97;;;304.50;;
10315;SDS011;5203;48.976;8.306;2023-08-30T00:35:33;344.40;;;334.10;;
10315;SDS011;5203;48.976;8.306;2023-08-30T00:37:59;343.03;;;332.93;;
10315;SDS011;5203;48.976;8.306;2023-08-30T00:40:25;329.93;;;319.97;;
10315;SDS011;5203;48.976;8.306;2023-08-30T00:42:51;312.83;;;303.70;;
10315;SDS011;5203;48.976;8.306;2023-08-30T00:45:17;297.47;;;288.80;;
10315;SDS011;5203;48.976;8.306;2023-08-30T00:47:43;275.47;;;267.53;;
10315;SDS011;5203;48.976;8.306;2023-08-30T00:50:09;297.40;;;288.43;;
10315;SDS011;5203;48.976;8.306;2023-08-30T00:52:35;296.50;;;287.90;;
10315;SDS011;5203;48.976;8.306;2023-08-30T00:55:01;307.57;;;298.43;;
10315;SDS011;5203;48.976;8.306;2023-08-30T00:57:26;277.50;;;269.40;;
10315;SDS011;5203;48.976;8.306;2023-08-30T00:59:53;287.30;;;278.87;;
10315;SDS011;5203;48.976;8.306;2023-08-30T01:02:19;283.17;;;274.83;;
10315;SDS011;5203;48.976;8.306;2023-08-30T01:04:45;290.53;;;281.93;;
10315;SDS011;5203;48.976;8.306;2023-08-30T01:07:11;304.50;;;295.57;;
10315;SDS011;5203;48.976;8.306;2023-08-30T01:09:36;332.93;;;323.00;;
10315;SDS011;5203;48.976;8.306;2023-08-30T01:14:45;363.00;;;351.77;;
10315;SDS011;5203;48.976;8.306;2023-08-30T01:17:22;351.50;;;341.10;;
10315;SDS011;5203;48.976;8.306;2023-08-30T01:28:29;288.30;;;279.67;;
10315;SDS011;5203;48.976;8.306;2023-08-30T01:30:57;305.73;;;296.83;;
10315;SDS011;5203;48.976;8.306;2023-08-30T01:33:25;306.27;;;297.30;;
10315;SDS011;5203;48.976;8.306;2023-08-30T01:35:57;317.13;;;307.67;;
10315;SDS011;5203;48.976;8.306;2023-08-30T01:38:28;331.07;;;321.27;;
10315;SDS011;5203;48.976;8.306;2023-08-30T01:40:55;353.37;;;342.60;;
10315;SDS011;5203;48.976;8.306;2023-08-30T01:43:24;350.57;;;339.80;;
10315;SDS011;5203;48.976;8.306;2023-08-30T01:45:54;353.93;;;343.43;;
10315;SDS011;5203;48.976;8.306;2023-08-30T01:48:21;338.60;;;328.60;;
10315;SDS011;5203;48.976;8.306;2023-08-30T01:50:48;333.03;;;323.10;;
10315;SDS011;5203;48.976;8.306;2023-08-30T01:53:14;333.10;;;323.33;;
10315;SDS011;5203;48.976;8.306;2023-08-30T01:55:40;329.37;;;319.67;;
10315;SDS011;5203;48.976;8.306;2023-08-30T01:58:07;313.00;;;303.80;;
10315;SDS011;5203;48.976;8.306;2023-08-30T02:00:34;311.50;;;302.27;;
10315;SDS011;5203;48.976;8.306;2023-08-30T02:03:06;312.53;;;303.23;;
10315;SDS011;5203;48.976;8.306;2023-08-30T02:08:32;333.17;;;323.10;;
10315;SDS011;5203;48.976;8.306;2023-08-30T02:11:04;331.73;;;321.90;;
10315;SDS011;5203;48.976;8.306;2023-08-30T02:13:36;348.03;;;337.30;;
10315;SDS011;5203;48.976;8.306;2023-08-30T02:16:03;350.17;;;339.67;;
10315;SDS011;5203;48.976;8.306;2023-08-30T02:18:29;347.33;;;337.03;;
10315;SDS011;5203;48.976;8.306;2023-08-30T02:20:55;336.43;;;326.33;;
10315;SDS011;5203;48.976;8.306;2023-08-30T02:23:25;325.83;;;316.00;;
10315;SDS011;5203;48.976;8.306;2023-08-30T02:25:51;340.13;;;329.90;;
10315;SDS011;5203;48.976;8.306;2023-08-30T02:28:17;334.97;;;325.07;;
10315;SDS011;5203;48.976;8.306;2023-08-30T02:30:42;358.17;;;347.27;;
10315;SDS011;5203;48.976;8.306;2023-08-30T02:33:08;345.37;;;334.97;;
10315;SDS011;5203;48.976;8.306;2023-08-30T02:35:34;363.33;;;352.47;;
10315;SDS011;5203;48.976;8.306;2023-08-30T02:37:59;348.83;;;338.40;;
10315;SDS011;5203;48.976;8.306;2023-08-30T02:40:29;332.30;;;322.33;;
10315;SDS011;5203;48.976;8.306;2023-08-30T02:42:55;342.10;;;331.80;;
10315;SDS011;5203;48.976;8.306;2023-08-30T02:45:21;353.47;;;342.87;;
10315;SDS011;5203;48.976;8.306;2023-08-30T02:47:47;358.17;;;347.40;;
10315;SDS011;5203;48.976;8.306;2023-08-30T02:50:13;352.70;;;342.23;;
10315;SDS011;5203;48.976;8.306;2023-08-30T02:52:39;365.93;;;354.93;;
10315;SDS011;5203;48.976;8.306;2023-08-30T02:55:05;357.70;;;346.67;;
10315;SDS011;5203;48.976;8.306;2023-08-30T02:57:31;359.93;;;348.83;;
10315;SDS011;5203;48.976;8.306;2023-08-30T02:59:57;370.67;;;359.63;;
10315;SDS011;5203;48.976;8.306;2023-08-30T03:02:22;354.13;;;343.33;;
10315;SDS011;5203;48.976;8.306;2023-08-30T03:04:48;355.63;;;344.87;;
10315;SDS011;5203;48.976;8.306;2023-08-30T03:07:14;354.03;;;343.07;;
10315;SDS011;5203;48.976;8.306;2023-08-30T03:09:40;345.13;;;334.93;;
10315;SDS011;5203;48.976;8.306;2023-08-30T03:12:06;350.87;;;340.13;;
10315;SDS011;5203;48.976;8.306;2023-08-30T03:14:31;333.50;;;323.63;;
10315;SDS011;5203;48.976;8.306;2023-08-30T03:16:57;334.37;;;324.57;;
10315;SDS011;5203;48.976;8.306;2023-08-30T03:19:23;340.67;;;330.33;;
10315;SDS011;5203;48.976;8.306;2023-08-30T03:21:48;347.83;;;337.47;;
10315;SDS011;5203;48.976;8.306;2023-08-30T03:24:14;365.27;;;354.43;;
10315;SDS011;5203;48.976;8.306;2023-08-30T03:26:42;359.23;;;348.40;;
10315;SDS011;5203;48.976;8.306;2023-08-30T03:29:08;355.20;;;344.73;;
10315;SDS011;5203;48.976;8.306;2023-08-30T03:31:34;368.70;;;357.47;;
10315;SDS011;5203;48.976;8.306;2023-08-30T03:34:00;363.30;;;352.57;;
10315;SDS011;5203;48.976;8.306;2023-08-30T03:36:26;383.20;;;371.47;;
10315;SDS011;5203;48.976;8.306;2023-08-30T03:38:51;394.17;;;381.80;;
10315;SDS011;5203;48.976;8.306;2023-08-30T03:41:17;373.97;;;362.63;;
10315;SDS011;5203;48.976;8.306;2023-08-30T03:43:46;376.97;;;365.57;;
10315;SDS011;5203;48.976;8.306;2023-08-30T03:46:11;376.10;;;364.87;;
10315;SDS011;5203;48.976;8.306;2023-08-30T03:48:37;376.67;;;365.23;;
10315;SDS011;5203;48.976;8.306;2023-08-30T03:51:03;380.83;;;369.33;;
10315;SDS011;5203;48.976;8.306;2023-08-30T03:53:29;382.60;;;370.80;;
10315;SDS011;5203;48.976;8.306;2023-08-30T03:55:55;382.53;;;370.87;;
10315;SDS011;5203;48.976;8.306;2023-08-30T03:58:21;382.20;;;370.53;;
10315;SDS011;5203;48.976;8.306;2023-08-30T04:00:47;370.13;;;359.00;;
10315;SDS011;5203;48.976;8.306;2023-08-30T04:03:13;377.60;;;366.33;;
10315;SDS011;5203;48.976;8.306;2023-08-30T04:05:39;383.57;;;372.10;;
10315;SDS011;5203;48.976;8.306;2023-08-30T04:08:06;385.17;;;373.17;;
10315;SDS011;5203;48.976;8.306;2023-08-30T04:10:35;375.67;;;364.37;;
10315;SDS011;5203;48.976;8.306;2023-08-30T04:13:02;369.20;;;358.20;;
10315;SDS011;5203;48.976;8.306;2023-08-30T04:15:28;364.57;;;353.63;;
10315;SDS011;5203;48.976;8.306;2023-08-30T04:17:54;367.73;;;356.63;;
10315;SDS011;5203;48.976;8.306;2023-08-30T04:20:19;386.40;;;374.77;;
10315;SDS011;5203;48.976;8.306;2023-08-30T04:22:45;366.83;;;355.43;;
10315;SDS011;5203;48.976;8.306;2023-08-30T04:25:11;374.37;;;363.03;;
10315;SDS011;5203;48.976;8.306;2023-08-30T04:27:37;367.93;;;356.90;;
10315;SDS011;5203;48.976;8.306;2023-08-30T04:30:05;370.77;;;359.37;;
10315;SDS011;5203;48.976;8.306;2023-08-30T04:32:31;372.27;;;361.07;;
10315;SDS011;5203;48.976;8.306;2023-08-30T04:34:57;379.57;;;368.13;;
10315;SDS011;5203;48.976;8.306;2023-08-30T04:37:23;370.43;;;359.03;;
10315;SDS011;5203;48.976;8.306;2023-08-30T04:39:48;382.40;;;370.60;;
10315;SDS011;5203;48.976;8.306;2023-08-30T04:42:14;365.53;;;354.47;;
10315;SDS011;5203;48.976;8.306;2023-08-30T04:44:40;377.93;;;366.37;;
10315;SDS011;5203;48.976;8.306;2023-08-30T04:47:06;375.57;;;364.17;;
10315;SDS011;5203;48.976;8.306;2023-08-30T04:49:31;371.00;;;359.80;;
10315;SDS011;5203;48.976;8.306;2023-08-30T04:51:58;376.50;;;365.17;;
10315;SDS011;5203;48.976;8.306;2023-08-30T04:54:23;378.77;;;367.37;;
10315;SDS011;5203;48.976;8.306;2023-08-30T04:56:49;387.63;;;375.77;;
10315;SDS011;5203;48.976;8.306;2023-08-30T04:59:14;379.40;;;367.97;;
10315;SDS011;5203;48.976;8.306;2023-08-30T05:01:40;389.40;;;377.60;;
10315;SDS011;5203;48.976;8.306;2023-08-30T05:04:09;369.97;;;358.67;;
10315;SDS011;5203;48.976;8.306;2023-08-30T05:06:35;378.97;;;367.60;;
10315;SDS011;5203;48.976;8.306;2023-08-30T05:09:01;385.27;;;373.43;;
10315;SDS011;5203;48.976;8.306;2023-08-30T05:11:27;380.50;;;369.10;;
10315;SDS011;5203;48.976;8.306;2023-08-30T05:13:53;367.63;;;356.53;;
10315;SDS011;5203;48.976;8.306;2023-08-30T05:16:19;366.50;;;355.57;;
10315;SDS011;5203;48.976;8.306;2023-08-30T05:18:45;373.93;;;362.70;;
10315;SDS011;5203;48.976;8.306;2023-08-30T05:21:13;376.43;;;365.03;;
10315;SDS011;5203;48.976;8.306;2023-08-30T05:23:39;376.47;;;365.10;;
10315;SDS011;5203;48.976;8.306;2023-08-30T05:26:07;374.20;;;362.97;;
10315;SDS011;5203;48.976;8.306;2023-08-30T05:28:39;370.93;;;359.77;;
10315;SDS011;5203;48.976;8.306;2023-08-30T05:31:05;366.80;;;355.77;;
10315;SDS011;5203;48.976;8.306;2023-08-30T05:33:31;372.97;;;361.67;;
10315;SDS011;5203;48.976;8.306;2023-08-30T05:35:56;385.13;;;373.17;;
10315;SDS011;5203;48.976;8.306;2023-08-30T05:38:22;380.60;;;368.70;;
10315;SDS011;5203;48.976;8.306;2023-08-30T05:40:48;375.43;;;363.97;;
10315;SDS011;5203;48.976;8.306;2023-08-30T05:43:13;362.83;;;351.87;;
10315;SDS011;5203;48.976;8.306;2023-08-30T05:45:41;377.10;;;365.67;;
10315;SDS011;5203;48.976;8.306;2023-08-30T05:48:06;354.97;;;344.13;;
10315;SDS011;5203;48.976;8.306;2023-08-30T05:50:32;370.07;;;358.53;;
10315;SDS011;5203;48.976;8.306;2023-08-30T05:52:57;374.40;;;362.63;;
10315;SDS011;5203;48.976;8.306;2023-08-30T05:55:23;385.33;;;373.63;;
10315;SDS011;5203;48.976;8.306;2023-08-30T05:57:49;375.17;;;363.73;;
10315;SDS011;5203;48.976;8.306;2023-08-30T06:00:15;350.43;;;340.03;;
10315;SDS011;5203;48.976;8.306;2023-08-30T06:02:41;337.17;;;326.97;;
10315;SDS011;5203;48.976;8.306;2023-08-30T06:05:06;356.20;;;345.77;;
10315;SDS011;5203;48.976;8.306;2023-08-30T06:07:32;350.17;;;339.70;;
10315;SDS011;5203;48.976;8.306;2023-08-30T06:09:58;328.80;;;319.17;;
10315;SDS011;5203;48.976;8.306;2023-08-30T06:12:24;371.43;;;360.30;;
10315;SDS011;5203;48.976;8.306;2023-08-30T06:14:51;376.50;;;365.10;;
10315;SDS011;5203;48.976;8.306;2023-08-30T06:17:20;362.60;;;351.67;;
10315;SDS011;5203;48.976;8.306;2023-08-30T06:19:46;365.27;;;354.23;;
10315;SDS011;5203;48.976;8.306;2023-08-30T06:22:12;372.13;;;360.80;;
10315;SDS011;5203;48.976;8.306;2023-08-30T06:24:38;384.13;;;372.50;;
10315;SDS011;5203;48.976;8.306;2023-08-30T06:27:04;379.03;;;367.50;;
10315;SDS011;5203;48.976;8.306;2023-08-30T06:29:30;377.93;;;366.33;;
10315;SDS011;5203;48.976;8.306;2023-08-30T06:31:55;363.03;;;352.00;;
10315;SDS011;5203;48.976;8.306;2023-08-30T06:34:21;360.27;;;349.53;;
10315;SDS011;5203;48.976;8.306;2023-08-30T06:36:47;377.17;;;365.33;;
10315;SDS011;5203;48.976;8.306;2023-08-30T06:39:13;395.13;;;383.07;;
10315;SDS011;5203;48.976;8.306;2023-08-30T06:41:39;385.90;;;374.13;;
10315;SDS011;5203;48.976;8.306;2023-08-30T06:44:04;379.73;;;368.23;;
10315;SDS011;5203;48.976;8.306;2023-08-30T06:46:30;366.37;;;355.23;;
10315;SDS011;5203;48.976;8.306;2023-08-30T06:48:56;356.43;;;345.33;;
10315;SDS011;5203;48.976;8.306;2023-08-30T06:51:22;360.97;;;350.00;;
10315;SDS011;5203;48.976;8.306;2023-08-30T06:53:48;362.17;;;351.17;;
10315;SDS011;5203;48.976;8.306;2023-08-30T06:56:13;372.07;;;360.63;;
10315;SDS011;5203;48.976;8.306;2023-08-30T06:58:39;383.93;;;372.40;;
10315;SDS011;5203;48.976;8.306;2023-08-30T07:01:05;388.37;;;376.70;;
10315;SDS011;5203;48.976;8.306;2023-08-30T07:03:30;371.57;;;360.07;;
10315;SDS011;5203;48.976;8.306;2023-08-30T07:05:56;363.57;;;352.70;;
10315;SDS011;5203;48.976;8.306;2023-08-30T07:08:22;384.63;;;373.03;;
10315;SDS011;5203;48.976;8.306;2023-08-30T07:10:47;373.10;;;361.90;;
10315;SDS011;5203;48.976;8.306;2023-08-30T07:13:13;374.77;;;363.43;;
10315;SDS011;5203;48.976;8.306;2023-08-30T07:15:39;326.27;;;316.50;;
10315;SDS011;5203;48.976;8.306;2023-08-30T07:18:08;345.73;;;335.37;;
10315;SDS011;5203;48.976;8.306;2023-08-30T07:20:34;339.73;;;329.67;;
10315;SDS011;5203;48.976;8.306;2023-08-30T07:23:01;349.63;;;338.60;;
10315;SDS011;5203;48.976;8.306;2023-08-30T07:25:27;376.97;;;365.57;;
10315;SDS011;5203;48.976;8.306;2023-08-30T07:27:55;370.00;;;358.97;;
10315;SDS011;5203;48.976;8.306;2023-08-30T07:30:21;367.17;;;356.20;;
10315;SDS011;5203;48.976;8.306;2023-08-30T07:32:47;375.17;;;363.73;;
10315;SDS011;5203;48.976;8.306;2023-08-30T07:35:12;376.00;;;364.67;;
10315;SDS011;5203;48.976;8.306;2023-08-30T07:37:38;325.93;;;316.43;;
10315;SDS011;5203;48.976;8.306;2023-08-30T07:40:04;312.40;;;303.30;;
10315;SDS011;5203;48.976;8.306;2023-08-30T07:42:30;315.47;;;306.27;;
10315;SDS011;5203;48.976;8.306;2023-08-30T07:44:56;325.80;;;315.63;;
10315;SDS011;5203;48.976;8.306;2023-08-30T07:47:21;403.73;;;389.33;;
10315;SDS011;5203;48.976;8.306;2023-08-30T07:49:47;359.03;;;348.40;;
10315;SDS011;5203;48.976;8.306;2023-08-30T07:52:13;337.43;;;327.07;;
10315;SDS011;5203;48.976;8.306;2023-08-30T07:54:39;330.30;;;320.53;;
10315;SDS011;5203;48.976;8.306;2023-08-30T07:57:05;267.07;;;259.27;;
10315;SDS011;5203;48.976;8.306;2023-08-30T07:59:35;307.17;;;298.17;;
10315;SDS011;5203;48.976;8.306;2023-08-30T08:02:02;356.50;;;345.67;;
10315;SDS011;5203;48.976;8.306;2023-08-30T08:04:29;337.13;;;326.73;;
10315;SDS011;5203;48.976;8.306;2023-08-30T08:06:55;333.13;;;323.33;;
10315;SDS011;5203;48.976;8.306;2023-08-30T08:09:20;263.63;;;255.90;;
10315;SDS011;5203;48.976;8.306;2023-08-30T08:11:47;300.40;;;291.63;;
10315;SDS011;5203;48.976;8.306;2023-08-30T08:14:13;297.67;;;288.93;;
10315;SDS011;5203;48.976;8.306;2023-08-30T08:16:39;305.37;;;296.37;;
10315;SDS011;5203;48.976;8.306;2023-08-30T08:19:05;373.30;;;361.87;;
10315;SDS011;5203;48.976;8.306;2023-08-30T08:21:32;331.33;;;321.57;;
10315;SDS011;5203;48.976;8.306;2023-08-30T08:24:00;295.80;;;287.27;;
10315;SDS011;5203;48.976;8.306;2023-08-30T08:26:26;275.27;;;267.13;;
10315;SDS011;5203;48.976;8.306;2023-08-30T08:28:53;280.20;;;271.90;;
10315;SDS011;5203;48.976;8.306;2023-08-30T08:31:20;276.80;;;268.63;;
10315;SDS011;5203;48.976;8.306;2023-08-30T08:33:45;295.20;;;286.20;;
10315;SDS011;5203;48.976;8.306;2023-08-30T08:36:11;295.60;;;286.97;;
10315;SDS011;5203;48.976;8.306;2023-08-30T08:38:37;335.03;;;325.23;;
10315;SDS011;5203;48.976;8.306;2023-08-30T08:41:07;316.00;;;306.73;;
10315;SDS011;5203;48.976;8.306;2023-08-30T08:43:37;303.67;;;294.90;;
10315;SDS011;5203;48.976;8.306;2023-08-30T08:46:04;333.17;;;323.10;;
10315;SDS011;5203;48.976;8.306;2023-08-30T08:48:33;295.40;;;286.80;;
10315;SDS011;5203;48.976;8.306;2023-08-30T08:51:04;300.80;;;292.17;;
10315;SDS011;5203;48.976;8.306;2023-08-30T08:53:30;258.40;;;250.83;;
10315;SDS011;5203;48.976;8.306;2023-08-30T08:55:56;308.10;;;298.90;;
10315;SDS011;5203;48.976;8.306;2023-08-30T08:58:24;314.77;;;305.57;;
10315;SDS011;5203;48.976;8.306;2023-08-30T09:00:50;353.37;;;342.23;;
10315;SDS011;5203;48.976;8.306;2023-08-30T09:03:17;320.93;;;311.07;;
10315;SDS011;5203;48.976;8.306;2023-08-30T09:05:43;303.73;;;292.80;;
10315;SDS011;5203;48.976;8.306;2023-08-30T09:08:11;281.45;;;272.65;;
10315;SDS011;5203;48.976;8.306;2023-08-30T09:10:38;274.93;;;266.73;;
10315;SDS011;5203;48.976;8.306;2023-08-30T09:13:05;295.13;;;286.30;;
10315;SDS011;5203;48.976;8.306;2023-08-30T09:15:31;311.07;;;302.07;;
10315;SDS011;5203;48.976;8.306;2023-08-30T09:18:03;267.73;;;259.90;;
10315;SDS011;5203;48.976;8.306;2023-08-30T09:20:29;310.63;;;301.55;;
10315;SDS011;5203;48.976;8.306;2023-08-30T09:22:55;293.48;;;285.13;;
10315;SDS011;5203;48.976;8.306;2023-08-30T09:25:24;289.95;;;281.00;;
10315;SDS011;5203;48.976;8.306;2023-08-30T09:27:56;287.95;;;279.52;;
10315;SDS011;5203;48.976;8.306;2023-08-30T09:30:24;277.42;;;269.42;;
10315;SDS011;5203;48.976;8.306;2023-08-30T09:32:50;261.55;;;253.88;;
10315;SDS011;5203;48.976;8.306;2023-08-30T09:35:16;265.13;;;257.35;;
10315;SDS011;5203;48.976;8.306;2023-08-30T09:37:44;417.40;;;404.55;;
10315;SDS011;5203;48.976;8.306;2023-08-30T09:40:10;334.63;;;324.80;;
10315;SDS011;5203;48.976;8.306;2023-08-30T09:42:40;311.33;;;302.38;;
10315;SDS011;5203;48.976;8.306;2023-08-30T09:45:16;336.88;;;327.17;;
10315;SDS011;5203;48.976;8.306;2023-08-30T09:47:49;336.10;;;325.73;;
10315;SDS011;5203;48.976;8.306;2023-08-30T09:50:19;333.52;;;323.95;;
10315;SDS011;5203;48.976;8.306;2023-08-30T09:52:48;331.42;;;321.83;;
10315;SDS011;5203;48.976;8.306;2023-08-30T09:55:15;353.67;;;343.20;;
10315;SDS011;5203;48.976;8.306;2023-08-30T09:57:43;457.08;;;442.70;;
10315;SDS011;5203;48.976;8.306;2023-08-30T10:00:09;396.30;;;384.10;;
10315;SDS011;5203;48.976;8.306;2023-08-30T10:02:37;336.25;;;326.52;;
10315;SDS011;5203;48.976;8.306;2023-08-30T10:05:06;403.65;;;391.20;;
10315;SDS011;5203;48.976;8.306;2023-08-30T10:07:35;345.38;;;335.02;;
10315;SDS011;5203;48.976;8.306;2023-08-30T10:10:02;485.38;;;469.75;;
10315;SDS011;5203;48.976;8.306;2023-08-30T10:12:32;323.33;;;313.67;;
10315;SDS011;5203;48.976;8.306;2023-08-30T10:14:58;398.90;;;386.83;;
10315;SDS011;5203;48.976;8.306;2023-08-30T10:17:27;479.35;;;464.38;;
10315;SDS011;5203;48.976;8.306;2023-08-30T10:19:54;474.98;;;459.65;;
10315;SDS011;5203;48.976;8.306;2023-08-30T10:22:21;505.27;;;488.98;;
10315;SDS011;5203;48.976;8.306;2023-08-30T10:24:56;360.40;;;349.67;;
10315;SDS011;5203;48.976;8.306;2023-08-30T10:27:26;464.05;;;449.63;;
10315;SDS011;5203;48.976;8.306;2023-08-30T10:29:53;495.67;;;479.45;;
10315;SDS011;5203;48.976;8.306;2023-08-30T10:32:20;525.22;;;507.45;;
10315;SDS011;5203;48.976;8.306;2023-08-30T10:34:49;482.10;;;467.02;;
10315;SDS011;5203;48.976;8.306;2023-08-30T10:37:16;552.97;;;534.42;;
10315;SDS011;5203;48.976;8.306;2023-08-30T10:39:49;511.83;;;495.20;;
10315;SDS011;5203;48.976;8.306;2023-08-30T10:42:15;522.47;;;505.25;;
10315;SDS011;5203;48.976;8.306;2023-08-30T10:44:52;562.40;;;543.40;;
10315;SDS011;5203;48.976;8.306;2023-08-30T10:47:32;504.85;;;488.50;;
10315;SDS011;5203;48.976;8.306;2023-08-30T10:50:04;465.50;;;451.02;;
10315;SDS011;5203;48.976;8.306;2023-08-30T10:52:31;521.15;;;504.45;;
10315;SDS011;5203;48.976;8.306;2023-08-30T10:55:09;451.33;;;437.45;;
10315;SDS011;5203;48.976;8.306;2023-08-30T10:57:41;489.48;;;473.98;;
10315;SDS011;5203;48.976;8.306;2023-08-30T11:02:35;585.55;;;564.90;;
10315;SDS011;5203;48.976;8.306;2023-08-30T11:05:02;614.38;;;592.67;;
10315;SDS011;5203;48.976;8.306;2023-08-30T11:07:30;624.83;;;602.55;;
10315;SDS011;5203;48.976;8.306;2023-08-30T11:09:57;588.55;;;568.03;;
10315;SDS011;5203;48.976;8.306;2023-08-30T11:12:22;550.13;;;531.72;;
10315;SDS011;5203;48.976;8.306;2023-08-30T11:14:49;620.05;;;598.25;;
10315;SDS011;5203;48.976;8.306;2023-08-30T11:17:17;498.63;;;483.13;;
10315;SDS011;5203;48.976;8.306;2023-08-30T11:19:44;486.15;;;470.92;;
10315;SDS011;5203;48.976;8.306;2023-08-30T11:22:10;530.55;;;513.67;;
10315;SDS011;5203;48.976;8.306;2023-08-30T11:24:38;661.05;;;636.40;;
10315;SDS011;5203;48.976;8.306;2023-08-30T11:27:05;498.60;;;483.20;;
10315;SDS011;5203;48.976;8.306;2023-08-30T11:29:36;523.13;;;505.98;;
10315;SDS011;5203;48.976;8.306;2023-08-30T11:32:07;501.55;;;485.65;;
10315;SDS011;5203;48.976;8.306;2023-08-30T11:34:41;509.48;;;493.40;;
10315;SDS011;5203;48.976;8.306;2023-08-30T11:37:07;527.75;;;510.88;;
10315;SDS011;5203;48.976;8.306;2023-08-30T11:39:33;512.97;;;496.75;;
10315;SDS011;5203;48.976;8.306;2023-08-30T11:42:02;1999.90;;;999.90;;
10315;SDS011;5203;48.976;8.306;2023-08-30T11:44:30;1999.90;;;999.90;;
10315;SDS011;5203;48.976;8.306;2023-08-30T11:46:59;563.05;;;544.15;;
10315;SDS011;5203;48.976;8.306;2023-08-30T11:49:25;1999.90;;;999.90;;
10315;SDS011;5203;48.976;8.306;2023-08-30T11:51:53;1999.90;;;999.90;;
10315;SDS011;5203;48.976;8.306;2023-08-30T11:54:21;1999.90;;;999.90;;
10315;SDS011;5203;48.976;8.306;2023-08-30T11:56:50;1999.90;;;999.90;;
10315;SDS011;5203;48.976;8.306;2023-08-30T11:59:19;1999.90;;;999.90;;
10315;SDS011;5203;48.976;8.306;2023-08-30T12:01:47;1999.90;;;999.90;;
10315;SDS011;5203;48.976;8.306;2023-08-30T12:04:17;1999.90;;;999.90;;
10315;SDS011;5203;48.976;8.306;2023-08-30T12:06:44;1999.90;;;999.90;;
10315;SDS011;5203;48.976;8.306;2023-08-30T12:09:19;1999.90;;;999.90;;
10315;SDS011;5203;48.976;8.306;2023-08-30T12:11:50;1999.90;;;999.90;;
10315;SDS011;5203;48.976;8.306;2023-08-30T12:14:16;1999.90;;;999.90;;
10315;SDS011;5203;48.976;8.306;2023-08-30T12:16:42;1999.90;;;999.90;;
10315;SDS011;5203;48.976;8.306;2023-08-30T12:19:10;1999.90;;;999.90;;
10315;SDS011;5203;48.976;8.306;2023-08-30T12:21:43;1999.90;;;999.90;;
10315;SDS011;5203;48.976;8.306;2023-08-30T12:24:09;1999.90;;;999.90;;
10315;SDS011;5203;48.976;8.306;2023-08-30T12:26:38;1999.90;;;999.90;;
10315;SDS011;5203;48.976;8.306;2023-08-30T12:29:04;1999.90;;;999.90;;
10315;SDS011;5203;48.976;8.306;2023-08-30T12:31:31;1999.90;;;999.90;;
10315;SDS011;5203;48.976;8.306;2023-08-30T12:33:57;1999.90;;;999.90;;
10315;SDS011;5203;48.976;8.306;2023-08-30T12:36:23;1999.90;;;999.90;;
10315;SDS011;5203;48.976;8.306;2023-08-30T12:38:49;1999.90;;;999.90;;
10315;SDS011;5203;48.976;8.306;2023-08-30T12:41:15;1999.90;;;999.90;;
10315;SDS011;5203;48.976;8.306;2023-08-30T12:43:41;1999.90;;;999.90;;
10315;SDS011;5203;48.976;8.306;2023-08-30T12:46:06;1999.90;;;999.90;;
10315;SDS011;5203;48.976;8.306;2023-08-30T12:48:32;1999.90;;;999.90;;
10315;SDS011;5203;48.976;8.306;2023-08-30T12:50:58;1999.90;;;999.90;;
10315;SDS011;5203;48.976;8.306;2023-08-30T12:53:23;1999.90;;;999.90;;
10315;SDS011;5203;48.976;8.306;2023-08-30T12:55:49;1999.90;;;999.90;;
10315;SDS011;5203;48.976;8.306;2023-08-30T12:58:15;1999.90;;;999.90;;
10315;SDS011;5203;48.976;8.306;2023-08-30T13:00:40;1999.90;;;999.90;;
10315;SDS011;5203;48.976;8.306;2023-08-30T13:03:06;1999.90;;;999.90;;
10315;SDS011;5203;48.976;8.306;2023-08-30T13:05:32;1999.90;;;999.90;;
10315;SDS011;5203;48.976;8.306;2023-08-30T13:07:58;1999.90;;;999.90;;
10315;SDS011;5203;48.976;8.306;2023-08-30T13:10:25;1999.90;;;999.90;;
10315;SDS011;5203;48.976;8.306;2023-08-30T13:12:51;1999.90;;;999.90;;
10315;SDS011;5203;48.976;8.306;2023-08-30T13:15:16;1999.90;;;999.90;;
10315;SDS011;5203;48.976;8.306;2023-08-30T13:17:42;1999.90;;;999.90;;
10315;SDS011;5203;48.976;8.306;2023-08-30T13:20:11;1999.90;;;999.90;;
10315;SDS011;5203;48.976;8.306;2023-08-30T13:22:37;1999.90;;;999.90;;
10315;SDS011;5203;48.976;8.306;2023-08-30T13:25:02;1999.90;;;999.90;;
10315;SDS011;5203;48.976;8.306;2023-08-30T13:27:29;1999.90;;;999.90;;
10315;SDS011;5203;48.976;8.306;2023-08-30T13:29:55;1999.90;;;999.90;;
10315;SDS011;5203;48.976;8.306;2023-08-30T13:32:20;1999.90;;;999.90;;
10315;SDS011;5203;48.976;8.306;2023-08-30T13:34:46;1999.90;;;999.90;;
10315;SDS011;5203;48.976;8.306;2023-08-30T13:37:13;1999.90;;;999.90;;
10315;SDS011;5203;48.976;8.306;2023-08-30T13:39:39;1999.90;;;999.90;;
10315;SDS011;5203;48.976;8.306;2023-08-30T13:42:05;1999.90;;;999.90;;
10315;SDS011;5203;48.976;8.306;2023-08-30T13:44:31;1999.90;;;999.90;;
10315;SDS011;5203;48.976;8.306;2023-08-30T13:47:02;1999.90;;;999.90;;
10315;SDS011;5203;48.976;8.306;2023-08-30T13:49:29;466.48;;;452.02;;
10315;SDS011;5203;48.976;8.306;2023-08-30T13:51:55;1999.90;;;999.90;;
10315;SDS011;5203;48.976;8.306;2023-08-30T13:54:21;1999.90;;;999.90;;
10315;SDS011;5203;48.976;8.306;2023-08-30T13:56:46;886.92;;;624.47;;
10315;SDS011;5203;48.976;8.306;2023-08-30T13:59:12;460.95;;;446.80;;
10315;SDS011;5203;48.976;8.306;2023-08-30T14:01:37;475.00;;;460.25;;
10315;SDS011;5203;48.976;8.306;2023-08-30T14:04:03;430.63;;;417.55;;
10315;SDS011;5203;48.976;8.306;2023-08-30T14:06:30;438.45;;;425.10;;
10315;SDS011;5203;48.976;8.306;2023-08-30T14:08:57;456.67;;;442.58;;
10315;SDS011;5203;48.976;8.306;2023-08-30T14:11:23;445.33;;;431.83;;
10315;SDS011;5203;48.976;8.306;2023-08-30T14:13:49;297.30;;;288.95;;
10315;SDS011;5203;48.976;8.306;2023-08-30T14:16:14;1999.90;;;999.90;;
10315;SDS011;5203;48.976;8.306;2023-08-30T14:18:40;1999.90;;;999.90;;
10315;SDS011;5203;48.976;8.306;2023-08-30T14:21:06;1999.90;;;999.90;;